createdAt,value
2022-09-20T00:01:28.652Z,98232.47
2022-09-20T00:04:00.692Z,98230.78
2022-09-20T00:06:31.593Z,98236.00
2022-09-20T00:08:59.726Z,98223.53
2022-09-20T00:11:29.234Z,98243.50
2022-09-20T00:13:59.020Z,98242.75
2022-09-20T00:16:29.286Z,98248.16
2022-09-20T00:18:58.200Z,98243.34
2022-09-20T00:21:27.878Z,98247.91
2022-09-20T00:23:56.764Z,98242.88
2022-09-20T00:26:23.907Z,98246.78
2022-09-20T00:28:52.036Z,98238.69
2022-09-20T00:31:19.129Z,98236.59
2022-09-20T00:34:04.955Z,98243.84
2022-09-20T00:36:31.820Z,98242.13
2022-09-20T00:39:00.397Z,98241.03
2022-09-20T00:41:28.150Z,98239.19
2022-09-20T00:43:56.010Z,98248.00
2022-09-20T00:46:29.522Z,98232.72
2022-09-20T00:49:06.294Z,98244.25
2022-09-20T00:51:38.902Z,98244.25
2022-09-20T00:54:09.366Z,98239.81
2022-09-20T00:56:41.062Z,98246.53
2022-09-20T00:59:16.665Z,98248.59
2022-09-20T01:01:52.410Z,98251.44
2022-09-20T01:04:23.270Z,98248.97
2022-09-20T01:06:55.082Z,98248.09
2022-09-20T01:09:21.710Z,98255.94
2022-09-20T01:11:51.176Z,98255.09
2022-09-20T01:14:20.232Z,98254.22
2022-09-20T01:16:47.037Z,98261.22
2022-09-20T01:19:28.480Z,98259.38
2022-09-20T01:21:55.286Z,98256.56
2022-09-20T01:24:31.556Z,98262.81
2022-09-20T01:27:20.591Z,98256.56
2022-09-20T01:30:02.266Z,98260.25
2022-09-20T01:32:52.754Z,98262.81
2022-09-20T01:35:21.742Z,98266.59
2022-09-20T01:38:10.031Z,98264.00
2022-09-20T01:40:53.193Z,98264.13
2022-09-20T01:43:49.168Z,98264.00
2022-09-20T01:46:22.561Z,98262.31
2022-09-20T01:48:51.918Z,98258.13
2022-09-20T01:52:00.798Z,98252.75
2022-09-20T01:55:05.756Z,98253.81
2022-09-20T01:57:45.645Z,98257.63
2022-09-20T02:00:13.259Z,98260.53
2022-09-20T02:03:12.572Z,98261.53
2022-09-20T02:06:05.594Z,98259.69
2022-09-20T02:09:13.518Z,98254.94
2022-09-20T02:11:51.218Z,98264.59
2022-09-20T02:14:40.309Z,98258.25
2022-09-20T02:17:12.226Z,98261.78
2022-09-20T02:19:55.162Z,98270.72
2022-09-20T02:22:32.801Z,98269.75
2022-09-20T02:25:08.766Z,98265.34
2022-09-20T02:27:45.054Z,98271.47
2022-09-20T02:30:39.650Z,98267.69
2022-09-20T02:33:15.297Z,98270.88
2022-09-20T02:36:00.410Z,98266.38
2022-09-20T02:38:54.995Z,98271.03
2022-09-20T02:42:02.764Z,98273.81
2022-09-20T02:44:44.523Z,98269.41
2022-09-20T02:47:42.992Z,98277.47
2022-09-20T02:50:42.608Z,98275.53
2022-09-20T02:53:23.996Z,98278.22
2022-09-20T02:56:03.789Z,98282.88
2022-09-20T02:58:59.336Z,98289.13
2022-09-20T03:01:38.160Z,98279.22
2022-09-20T03:04:29.475Z,98283.13
2022-09-20T03:07:05.122Z,98280.66
2022-09-20T03:09:35.135Z,98281.38
2022-09-20T03:12:11.408Z,98285.91
2022-09-20T03:14:45.465Z,98285.06
2022-09-20T03:17:27.494Z,98287.03
2022-09-20T03:20:06.396Z,98280.00
2022-09-20T03:23:01.275Z,98291.16
2022-09-20T03:25:51.476Z,98288.66
2022-09-20T03:28:42.828Z,98289.03
2022-09-20T03:31:50.848Z,98296.13
2022-09-20T03:34:39.436Z,98297.00
2022-09-20T03:37:42.414Z,98297.00
2022-09-20T03:40:42.876Z,98297.09
2022-09-20T03:43:39.486Z,98301.84
2022-09-20T03:46:30.538Z,98298.81
2022-09-20T03:49:25.025Z,98299.53
2022-09-20T03:52:10.263Z,98297.59
2022-09-20T03:54:50.001Z,98297.75
2022-09-20T03:57:45.818Z,98303.88
2022-09-20T04:00:23.684Z,98300.28
2022-09-20T04:03:46.070Z,98311.69
2022-09-20T04:06:46.588Z,98311.69
2022-09-20T04:09:32.456Z,98309.16
2022-09-20T04:12:10.767Z,98316.59
2022-09-20T04:14:54.432Z,98311.06
2022-09-20T04:17:31.364Z,98313.44
2022-09-20T04:20:15.366Z,98317.72
2022-09-20T04:22:44.814Z,98322.88
2022-09-20T04:25:22.710Z,98321.16
2022-09-20T04:27:54.881Z,98322.78
2022-09-20T04:30:27.859Z,98329.22
2022-09-20T04:33:13.799Z,98326.16
2022-09-20T04:36:09.719Z,98335.19
2022-09-20T04:38:37.054Z,98330.53
2022-09-20T04:41:20.456Z,98335.94
2022-09-20T04:43:53.764Z,98332.28
2022-09-20T04:46:42.446Z,98335.44
2022-09-20T04:49:37.916Z,98334.44
2022-09-20T04:52:35.152Z,98337.25
2022-09-20T04:55:39.640Z,98336.50
2022-09-20T04:58:12.126Z,98347.28
2022-09-20T05:01:03.605Z,98339.09
2022-09-20T05:03:56.441Z,98341.66
2022-09-20T05:06:25.766Z,98354.50
2022-09-20T05:08:59.199Z,98343.19
2022-09-20T05:11:34.887Z,98354.09
2022-09-20T05:14:32.934Z,98349.78
2022-09-20T05:17:27.246Z,98359.69
2022-09-20T05:20:09.193Z,98358.59
2022-09-20T05:23:13.568Z,98364.63
2022-09-20T05:25:47.566Z,98358.41
2022-09-20T05:28:21.880Z,98366.22
2022-09-20T05:30:54.266Z,98370.53
2022-09-20T05:33:28.702Z,98372.25
2022-09-20T05:36:06.836Z,98361.38
2022-09-20T05:38:40.934Z,98367.41
2022-09-20T05:41:45.956Z,98359.84
2022-09-20T05:44:50.599Z,98365.13
2022-09-20T05:47:43.222Z,98370.16
2022-09-20T05:50:18.847Z,98369.94
2022-09-20T05:52:51.478Z,98372.81
2022-09-20T05:55:47.730Z,98370.59
2022-09-20T05:58:23.150Z,98373.81
2022-09-20T06:00:55.938Z,98375.66
2022-09-20T06:03:45.660Z,98382.00
2022-09-20T06:06:34.322Z,98384.50
2022-09-20T06:09:13.436Z,98387.94
2022-09-20T06:11:58.486Z,98389.63
2022-09-20T06:14:52.178Z,98391.00
2022-09-20T06:17:21.686Z,98389.78
2022-09-20T06:20:06.694Z,98392.06
2022-09-20T06:22:39.979Z,98391.81
2022-09-20T06:25:09.418Z,98390.63
2022-09-20T06:28:22.520Z,98394.81
2022-09-20T06:30:51.533Z,98393.59
2022-09-20T06:33:19.074Z,98389.06
2022-09-20T06:35:56.885Z,98395.19
2022-09-20T06:39:09.822Z,98398.63
2022-09-20T06:41:37.202Z,98399.38
2022-09-20T06:44:05.556Z,98403.69
2022-09-20T06:46:34.946Z,98405.41
2022-09-20T06:49:02.569Z,98408.84
2022-09-20T06:51:35.386Z,98404.28
2022-09-20T06:54:02.566Z,98418.75
2022-09-20T06:56:35.543Z,98407.13
2022-09-20T06:59:03.087Z,98418.13
2022-09-20T07:01:30.800Z,98412.63
2022-09-20T07:03:59.195Z,98419.00
2022-09-20T07:06:26.867Z,98420.94
2022-09-20T07:08:53.611Z,98427.81
2022-09-20T07:11:23.377Z,98424.78
2022-09-20T07:13:55.401Z,98426.50
2022-09-20T07:16:22.778Z,98435.31
2022-09-20T07:18:49.868Z,98431.56
2022-09-20T07:21:18.093Z,98427.84
2022-09-20T07:23:45.955Z,98444.78
2022-09-20T07:26:39.164Z,98439.63
2022-09-20T07:29:08.017Z,98452.25
2022-09-20T07:31:34.703Z,98447.72
2022-09-20T07:34:01.974Z,98451.16
2022-09-20T07:36:29.420Z,98452.88
2022-09-20T07:38:56.380Z,98458.63
2022-09-20T07:41:23.353Z,98459.59
2022-09-20T07:43:51.402Z,98451.66
2022-09-20T07:46:22.308Z,98462.44
2022-09-20T07:48:49.152Z,98471.25
2022-09-20T07:51:15.798Z,98477.25
2022-09-20T07:53:42.422Z,98473.81
2022-09-20T07:56:16.154Z,98478.47
2022-09-20T07:58:47.442Z,98480.19
2022-09-20T08:01:18.197Z,98473.97
2022-09-20T08:03:46.188Z,98485.13
2022-09-20T08:06:16.631Z,98482.69
2022-09-20T08:08:43.560Z,98481.16
2022-09-20T08:11:16.823Z,98478.69
2022-09-20T08:16:32.992Z,98478.88
2022-09-20T08:19:03.443Z,98475.69
2022-09-20T08:21:35.819Z,98477.69
2022-09-20T08:24:04.090Z,98480.16
2022-09-20T08:26:36.548Z,98486.91
2022-09-20T08:29:05.996Z,98475.22
2022-09-20T08:31:37.187Z,98484.72
2022-09-20T08:34:06.985Z,98483.50
2022-09-20T08:36:36.994Z,98482.16
2022-09-20T08:42:14.485Z,98489.06
2022-09-20T08:44:58.750Z,98482.25
2022-09-20T08:47:29.623Z,98490.75
2022-09-20T08:49:57.925Z,98491.09
2022-09-20T08:52:37.508Z,98488.78
2022-09-20T08:55:16.873Z,98496.38
2022-09-20T08:57:47.184Z,98498.22
2022-09-20T09:00:22.676Z,98493.94
2022-09-20T09:02:54.574Z,98496.66
2022-09-20T09:05:34.960Z,98493.19
2022-09-20T09:08:06.941Z,98500.44
2022-09-20T09:10:43.118Z,98502.06
2022-09-20T09:13:20.955Z,98510.28
2022-09-20T09:15:54.438Z,98506.22
2022-09-20T09:18:21.178Z,98503.13
2022-09-20T09:20:47.976Z,98501.16
2022-09-20T09:23:27.315Z,98497.59
2022-09-20T09:25:55.228Z,98502.00
2022-09-20T09:28:29.402Z,98486.25
2022-09-20T09:31:38.667Z,98496.53
2022-09-20T09:34:17.445Z,98496.22
2022-09-20T09:36:44.655Z,98498.53
2022-09-20T09:39:35.597Z,98494.94
2022-09-20T09:42:22.576Z,98497.00
2022-09-20T09:44:50.585Z,98497.22
2022-09-20T09:47:31.319Z,98492.47
2022-09-20T09:50:02.888Z,98494.16
2022-09-20T09:52:37.096Z,98500.56
2022-09-20T09:55:05.905Z,98494.31
2022-09-20T09:57:47.074Z,98502.97
2022-09-20T10:00:21.834Z,98492.09
2022-09-20T10:03:18.505Z,98486.19
2022-09-20T10:06:21.791Z,98474.22
2022-09-20T10:09:36.332Z,98469.53
2022-09-20T10:12:08.916Z,98469.72
2022-09-20T10:15:10.814Z,98463.53
2022-09-20T10:17:55.776Z,98471.03
2022-09-20T10:20:42.568Z,98465.88
2022-09-20T10:23:45.231Z,98468.28
2022-09-20T10:26:44.075Z,98466.91
2022-09-20T10:29:26.293Z,98465.81
2022-09-20T10:32:18.958Z,98461.09
2022-09-20T10:35:04.152Z,98470.66
2022-09-20T10:38:04.302Z,98467.25
2022-09-20T10:41:17.311Z,98470.38
2022-09-20T10:43:57.547Z,98470.16
2022-09-20T10:46:38.230Z,98492.63
2022-09-20T10:49:25.051Z,98494.94
2022-09-20T10:52:00.938Z,98498.44
2022-09-20T10:55:12.580Z,98495.03
2022-09-20T10:57:57.701Z,98501.31
2022-09-20T11:00:30.146Z,98503.34
2022-09-20T11:03:35.535Z,98498.22
2022-09-20T11:06:10.025Z,98500.66
2022-09-20T11:08:38.380Z,98498.75
2022-09-20T11:11:29.632Z,98497.91
2022-09-20T11:14:06.335Z,98491.72
2022-09-20T11:16:52.713Z,98487.84
2022-09-20T11:19:19.361Z,98489.22
2022-09-20T11:22:03.134Z,98476.22
2022-09-20T11:24:38.501Z,98476.03
2022-09-20T11:27:14.423Z,98478.56
2022-09-20T11:29:50.170Z,98480.81
2022-09-20T11:32:29.916Z,98481.41
2022-09-20T11:35:03.421Z,98478.19
2022-09-20T11:37:38.336Z,98470.00
2022-09-20T11:40:22.755Z,98471.28
2022-09-20T11:42:51.185Z,98466.28
2022-09-20T11:45:18.322Z,98475.66
2022-09-20T11:47:55.735Z,98470.19
2022-09-20T11:50:45.346Z,98463.03
2022-09-20T11:53:41.464Z,98470.09
2022-09-20T11:56:35.392Z,98452.75
2022-09-20T11:59:05.834Z,98451.72
2022-09-20T12:01:40.752Z,98474.38
2022-09-20T12:04:32.543Z,98464.88
2022-09-20T12:07:11.507Z,98472.72
2022-09-20T12:09:44.440Z,98466.13
2022-09-20T12:12:29.082Z,98466.94
2022-09-20T12:14:58.648Z,98462.66
2022-09-20T12:17:47.220Z,98473.16
2022-09-20T12:20:32.810Z,98463.16
2022-09-20T12:23:37.085Z,98461.81
2022-09-20T12:26:03.682Z,98476.19
2022-09-20T12:29:23.096Z,98466.88
2022-09-20T12:31:52.211Z,98465.19
2022-09-20T12:34:18.808Z,98469.22
2022-09-20T12:37:09.438Z,98464.31
2022-09-20T12:39:40.210Z,98458.25
2022-09-20T12:42:28.404Z,98457.50
2022-09-20T12:45:03.577Z,98454.19
2022-09-20T12:47:38.273Z,98454.00
2022-09-20T12:50:33.017Z,98465.06
2022-09-20T12:53:07.346Z,98450.22
2022-09-20T12:55:46.403Z,98462.34
2022-09-20T12:58:15.776Z,98461.31
2022-09-20T13:00:45.475Z,98457.69
2022-09-20T13:03:43.784Z,98462.66
2022-09-20T13:06:13.257Z,98464.00
2022-09-20T13:08:40.154Z,98452.63
2022-09-20T13:11:08.221Z,98467.13
2022-09-20T13:13:51.789Z,98451.53
2022-09-20T13:16:47.881Z,98453.34
2022-09-20T13:19:20.685Z,98459.53
2022-09-20T13:21:58.795Z,98463.13
2022-09-20T13:24:27.745Z,98469.41
2022-09-20T13:27:00.223Z,98459.75
2022-09-20T13:29:35.261Z,98465.09
2022-09-20T13:32:24.792Z,98465.78
2022-09-20T13:35:20.143Z,98461.94
2022-09-20T13:38:07.831Z,98473.13
2022-09-20T13:40:43.796Z,98470.66
2022-09-20T13:43:44.469Z,98470.59
2022-09-20T13:46:17.256Z,98480.59
2022-09-20T13:48:48.095Z,98465.97
2022-09-20T13:51:25.805Z,98459.31
2022-09-20T13:53:53.639Z,98467.19
2022-09-20T13:56:24.279Z,98467.69
2022-09-20T13:58:51.572Z,98473.44
2022-09-20T14:01:21.672Z,98473.63
2022-09-20T14:03:48.683Z,98473.78
2022-09-20T14:06:16.207Z,98468.22
2022-09-20T14:08:50.289Z,98467.38
2022-09-20T14:11:22.532Z,98465.06
2022-09-20T14:13:52.346Z,98463.34
2022-09-20T14:16:21.141Z,98471.47
2022-09-20T14:18:49.726Z,98465.56
2022-09-20T14:21:25.110Z,98467.41
2022-09-20T14:23:55.030Z,98468.53
2022-09-20T14:26:28.063Z,98468.22
2022-09-20T14:28:55.427Z,98471.97
2022-09-20T14:31:34.908Z,98476.69
2022-09-20T14:34:04.458Z,98476.41
2022-09-20T14:36:31.688Z,98484.59
2022-09-20T14:39:02.879Z,98486.06
2022-09-20T14:41:41.569Z,98483.53
2022-09-20T14:44:26.340Z,98484.81
2022-09-20T14:46:54.538Z,98481.50
2022-09-20T14:49:24.453Z,98480.66
2022-09-20T14:51:52.610Z,98494.22
2022-09-20T14:54:29.052Z,98487.91
2022-09-20T14:56:57.872Z,98497.44
2022-09-20T14:59:36.055Z,98493.03
2022-09-20T15:02:12.739Z,98501.88
2022-09-20T15:04:42.253Z,98499.69
2022-09-20T15:07:11.883Z,98495.69
2022-09-20T15:09:39.150Z,98494.38
2022-09-20T15:12:12.316Z,98490.97
2022-09-20T15:14:40.848Z,98496.09
2022-09-20T15:17:10.151Z,98492.22
2022-09-20T15:19:38.522Z,98495.25
2022-09-20T15:22:05.305Z,98496.44
2022-09-20T15:24:31.949Z,98502.88
2022-09-20T15:26:58.646Z,98498.75
2022-09-20T15:29:26.144Z,98500.88
2022-09-20T15:31:52.928Z,98503.19
2022-09-20T15:34:19.738Z,98508.50
2022-09-20T15:36:47.201Z,98519.47
2022-09-20T15:39:13.881Z,98521.75
2022-09-20T15:41:41.123Z,98515.72
2022-09-20T15:44:08.271Z,98515.00
2022-09-20T15:46:35.396Z,98524.31
2022-09-20T15:49:07.848Z,98526.13
2022-09-20T15:51:35.814Z,98530.94
2022-09-20T15:54:06.623Z,98534.06
2022-09-20T15:56:36.729Z,98534.34
2022-09-20T15:59:05.821Z,98543.72
2022-09-20T16:01:39.343Z,98548.25
2022-09-20T16:04:14.069Z,98554.97
2022-09-20T16:06:42.630Z,98559.03
2022-09-20T16:09:10.291Z,98550.13
2022-09-20T16:11:37.507Z,98552.03
2022-09-20T16:14:05.512Z,98556.25
2022-09-20T16:16:40.091Z,98560.22
2022-09-20T16:19:22.547Z,98561.72
2022-09-20T16:21:57.800Z,98556.13
2022-09-20T16:24:31.864Z,98562.06
2022-09-20T16:27:01.471Z,98570.06
2022-09-20T16:29:30.384Z,98572.97
2022-09-20T16:31:58.816Z,98575.44
2022-09-20T16:34:32.002Z,98578.59
2022-09-20T16:37:05.898Z,98579.84
2022-09-20T16:39:32.809Z,98581.59
2022-09-20T16:42:05.000Z,98593.28
2022-09-20T16:44:37.186Z,98595.16
2022-09-20T16:47:09.125Z,98593.91
2022-09-20T16:49:37.374Z,98598.97
2022-09-20T16:52:06.117Z,98605.22
2022-09-20T16:54:34.227Z,98613.09
2022-09-20T16:57:02.393Z,98612.59
2022-09-20T16:59:29.477Z,98612.09
2022-09-20T17:01:56.851Z,98625.97
2022-09-20T17:04:23.922Z,98620.03
2022-09-20T17:06:51.534Z,98625.19
2022-09-20T17:09:18.885Z,98621.25
2022-09-20T17:11:48.063Z,98626.28
2022-09-20T17:14:17.810Z,98631.13
2022-09-20T17:16:47.749Z,98628.06
2022-09-20T17:19:17.488Z,98637.59
2022-09-20T17:21:46.838Z,98638.28
2022-09-20T17:24:14.771Z,98636.28
2022-09-20T17:26:46.010Z,98636.63
2022-09-20T17:29:16.356Z,98638.19
2022-09-20T17:31:54.626Z,98640.38
2022-09-20T17:34:23.052Z,98645.03
2022-09-20T17:36:50.982Z,98646.09
2022-09-20T17:39:18.761Z,98651.63
2022-09-20T17:41:48.410Z,98658.09
2022-09-20T17:44:16.791Z,98661.91
2022-09-20T17:46:46.648Z,98663.94
2022-09-20T17:49:14.285Z,98663.31
2022-09-20T17:51:43.668Z,98665.38
2022-09-20T17:54:14.441Z,98664.63
2022-09-20T17:56:42.826Z,98668.16
2022-09-20T17:59:10.927Z,98679.22
2022-09-20T18:01:37.944Z,98683.75
2022-09-20T18:04:06.572Z,98684.34
2022-09-20T18:06:44.863Z,98684.03
2022-09-20T18:09:15.676Z,98683.78
2022-09-20T18:11:49.965Z,98690.81
2022-09-20T18:14:22.850Z,98693.28
2022-09-20T18:16:56.107Z,98703.09
2022-09-20T18:19:23.032Z,98696.88
2022-09-20T18:21:50.134Z,98701.63
2022-09-20T18:24:17.001Z,98704.94
2022-09-20T18:26:44.951Z,98703.97
2022-09-20T18:29:14.371Z,98717.25
2022-09-20T18:31:47.279Z,98714.44
2022-09-20T18:34:19.888Z,98714.44
2022-09-20T18:36:53.323Z,98718.84
2022-09-20T18:39:25.116Z,98721.53
2022-09-20T18:41:53.501Z,98726.09
2022-09-20T18:44:21.509Z,98723.50
2022-09-20T18:46:50.960Z,98728.13
2022-09-20T18:49:18.023Z,98734.38
2022-09-20T18:51:46.475Z,98727.94
2022-09-20T18:54:13.215Z,98731.59
2022-09-20T18:56:42.142Z,98732.69
2022-09-20T18:59:24.625Z,98737.22
2022-09-20T19:01:53.396Z,98737.53
2022-09-20T19:04:44.639Z,98732.34
2022-09-20T19:07:29.635Z,98741.53
2022-09-20T19:10:25.292Z,98749.75
2022-09-20T19:13:05.422Z,98744.59
2022-09-20T19:15:41.828Z,98739.28
2022-09-20T19:18:29.457Z,98746.75
2022-09-20T19:21:06.654Z,98742.44
2022-09-20T19:23:48.483Z,98752.47
2022-09-20T19:26:22.325Z,98750.00
2022-09-20T19:28:51.563Z,98749.34
2022-09-20T19:31:32.555Z,98753.22
2022-09-20T19:34:01.761Z,98753.56
2022-09-20T19:36:31.387Z,98754.72
2022-09-20T19:39:02.133Z,98754.31
2022-09-20T19:42:16.592Z,98759.16
2022-09-20T19:45:15.472Z,98760.59
2022-09-20T19:47:57.063Z,98753.31
2022-09-20T19:50:33.377Z,98759.97
2022-09-20T19:53:04.413Z,98768.06
2022-09-20T19:55:32.758Z,98761.63
2022-09-20T19:57:59.902Z,98770.56
2022-09-20T20:00:27.299Z,98767.09
2022-09-20T20:02:54.399Z,98772.41
2022-09-20T20:05:27.765Z,98764.31
2022-09-20T20:08:14.962Z,98766.25
2022-09-20T20:10:56.730Z,98761.06
2022-09-20T20:14:12.588Z,98764.84
2022-09-20T20:17:02.019Z,98760.59
2022-09-20T20:20:05.614Z,98762.66
2022-09-20T20:22:51.308Z,98761.25
2022-09-20T20:25:42.080Z,98765.22
2022-09-20T20:28:09.505Z,98757.44
2022-09-20T20:30:36.149Z,98762.06
2022-09-20T20:33:06.055Z,98764.25
2022-09-20T20:35:32.644Z,98763.59
2022-09-20T20:37:59.266Z,98773.59
2022-09-20T20:40:25.974Z,98772.81
2022-09-20T20:43:02.142Z,98776.56
2022-09-20T20:45:29.974Z,98778.31
2022-09-20T20:47:59.821Z,98782.81
2022-09-20T20:50:27.194Z,98781.09
2022-09-20T20:52:55.785Z,98790.13
2022-09-20T20:55:23.543Z,98786.69
2022-09-20T20:57:58.418Z,98778.69
2022-09-20T21:00:28.489Z,98781.53
2022-09-20T21:02:59.048Z,98787.09
2022-09-20T21:05:28.893Z,98789.13
2022-09-20T21:07:55.563Z,98788.28
2022-09-20T21:10:22.454Z,98790.88
2022-09-20T21:12:53.282Z,98780.97
2022-09-20T21:15:20.089Z,98782.78
2022-09-20T21:17:53.333Z,98777.59
2022-09-20T21:20:22.509Z,98777.81
2022-09-20T21:22:49.480Z,98784.06
2022-09-20T21:25:16.277Z,98779.84
2022-09-20T21:27:42.900Z,98785.31
2022-09-20T21:30:10.098Z,98780.88
2022-09-20T21:32:36.761Z,98788.03
2022-09-20T21:35:03.660Z,98785.41
2022-09-20T21:37:30.638Z,98788.97
2022-09-20T21:39:57.362Z,98793.59
2022-09-20T21:42:25.892Z,98796.19
2022-09-20T21:44:53.115Z,98791.78
2022-09-20T21:47:20.679Z,98798.03
2022-09-20T21:49:48.272Z,98799.72
2022-09-20T21:52:14.942Z,98797.94
2022-09-20T21:57:13.746Z,98802.44
2022-09-20T21:59:40.746Z,98798.97
2022-09-20T22:02:07.477Z,98803.50
2022-09-20T22:04:34.220Z,98805.25
2022-09-20T22:07:04.109Z,98802.44
2022-09-20T22:09:31.258Z,98803.09
2022-09-20T22:11:58.012Z,98802.22
2022-09-20T22:14:24.694Z,98810.97
2022-09-20T22:16:51.511Z,98812.69
2022-09-20T22:19:18.894Z,98802.59
2022-09-20T22:21:48.149Z,98802.41
2022-09-20T22:24:16.400Z,98798.63
2022-09-20T22:26:46.178Z,98808.22
2022-09-20T22:29:13.073Z,98816.97
2022-09-20T22:31:45.195Z,98807.63
2022-09-20T22:34:19.448Z,98809.91
2022-09-20T22:36:46.122Z,98813.25
2022-09-20T22:39:13.557Z,98810.25
2022-09-20T22:41:42.734Z,98814.56
2022-09-20T22:44:10.679Z,98814.25
2022-09-20T22:46:38.947Z,98815.13
2022-09-20T22:49:06.557Z,98814.06
2022-09-20T22:51:33.651Z,98807.69
2022-09-20T22:54:04.977Z,98817.50
2022-09-20T22:56:32.516Z,98812.97
2022-09-20T22:59:04.836Z,98813.41
2022-09-20T23:01:34.360Z,98810.78
2022-09-20T23:04:04.514Z,98816.84
2022-09-20T23:06:39.988Z,98816.84
2022-09-20T23:09:09.718Z,98817.69
2022-09-20T23:11:38.486Z,98819.34
2022-09-20T23:14:06.563Z,98819.25
2022-09-20T23:16:35.510Z,98813.97
2022-09-20T23:19:04.000Z,98820.28
2022-09-20T23:21:31.655Z,98822.22
2022-09-20T23:24:00.740Z,98821.56
2022-09-20T23:26:29.849Z,98816.41
2022-09-20T23:28:59.222Z,98818.34
2022-09-20T23:31:27.500Z,98824.78
2022-09-20T23:33:57.951Z,98821.56
2022-09-20T23:36:26.874Z,98826.06
2022-09-20T23:38:54.274Z,98830.91
2022-09-20T23:41:23.074Z,98824.75
2022-09-20T23:43:50.060Z,98829.47
2022-09-20T23:46:18.514Z,98831.50
2022-09-20T23:48:45.644Z,98832.69
2022-09-20T23:51:15.971Z,98829.31
2022-09-20T23:53:43.408Z,98830.38
2022-09-20T23:56:10.983Z,98831.53
2022-09-20T23:58:39.364Z,98841.63
